createdAt,value
2018-09-29T00:02:17.712Z,15.40
2018-09-29T00:04:47.281Z,15.40
2018-09-29T00:07:15.875Z,15.40
2018-09-29T00:09:44.569Z,15.30
2018-09-29T00:12:13.164Z,15.20
2018-09-29T00:14:41.762Z,15.20
2018-09-29T00:17:10.443Z,15.20
2018-09-29T00:19:39.702Z,15.20
2018-09-29T00:22:08.836Z,15.30
2018-09-29T00:24:37.396Z,15.20
2018-09-29T00:27:05.968Z,15.20
2018-09-29T00:29:34.652Z,15.20
2018-09-29T00:32:03.364Z,15.20
2018-09-29T00:34:31.956Z,15.20
2018-09-29T00:37:00.503Z,15.10
2018-09-29T00:39:30.330Z,15.10
2018-09-29T00:41:58.838Z,15.10
2018-09-29T00:44:27.632Z,15.10
2018-09-29T00:46:58.185Z,15.10
2018-09-29T00:49:26.663Z,15.10
2018-09-29T00:51:55.245Z,15.10
2018-09-29T00:54:25.015Z,15.00
2018-09-29T00:56:53.540Z,15.00
2018-09-29T00:59:22.027Z,15.00
2018-09-29T01:01:51.319Z,15.00
2018-09-29T01:04:19.834Z,15.00
2018-09-29T01:06:49.033Z,14.90
2018-09-29T01:09:17.536Z,14.90
2018-09-29T01:11:46.026Z,14.90
2018-09-29T01:14:14.531Z,14.80
2018-09-29T01:16:43.243Z,14.80
2018-09-29T01:19:11.897Z,14.80
2018-09-29T01:21:41.455Z,14.80
2018-09-29T01:24:09.937Z,14.80
2018-09-29T01:26:38.473Z,14.80
2018-09-29T01:29:06.956Z,14.70
2018-09-29T01:31:37.091Z,14.80
2018-09-29T01:34:05.730Z,14.80
2018-09-29T01:36:34.311Z,14.80
2018-09-29T01:39:03.138Z,14.80
2018-09-29T01:41:31.795Z,14.80
2018-09-29T01:44:00.375Z,14.80
2018-09-29T01:46:32.060Z,14.80
2018-09-29T01:49:00.565Z,14.70
2018-09-29T01:51:29.022Z,14.70
2018-09-29T01:53:57.615Z,14.60
2018-09-29T01:56:26.128Z,14.60
2018-09-29T01:58:54.699Z,14.60
2018-09-29T02:01:23.397Z,14.60
2018-09-29T02:03:52.619Z,14.50
2018-09-29T02:06:21.109Z,14.50
2018-09-29T02:08:49.915Z,14.40
2018-09-29T02:11:18.405Z,14.40
2018-09-29T02:13:46.900Z,14.50
2018-09-29T02:16:15.418Z,14.40
2018-09-29T02:18:43.887Z,14.40
2018-09-29T02:21:12.392Z,14.40
2018-09-29T02:23:40.851Z,14.40
2018-09-29T02:26:09.307Z,14.40
2018-09-29T02:28:37.884Z,14.40
2018-09-29T02:31:06.372Z,14.30
2018-09-29T02:33:34.882Z,14.30
2018-09-29T02:36:04.108Z,14.30
2018-09-29T02:38:33.169Z,14.30
2018-09-29T02:41:01.740Z,14.20
2018-09-29T02:43:30.230Z,14.20
2018-09-29T02:45:59.443Z,14.20
2018-09-29T02:48:28.507Z,14.20
2018-09-29T02:50:57.020Z,14.20
2018-09-29T02:53:25.536Z,14.20
2018-09-29T02:55:54.072Z,14.10
2018-09-29T02:58:22.565Z,14.10
2018-09-29T03:00:51.714Z,14.10
2018-09-29T03:03:20.262Z,14.10
2018-09-29T03:05:48.829Z,14.00
2018-09-29T03:08:17.384Z,14.00
2018-09-29T03:10:46.952Z,13.80
2018-09-29T03:13:15.473Z,13.80
2018-09-29T03:15:44.021Z,13.70
2018-09-29T03:18:12.551Z,13.60
2018-09-29T03:20:41.018Z,13.60
2018-09-29T03:23:09.600Z,13.70
2018-09-29T03:25:38.027Z,13.70
2018-09-29T03:28:06.557Z,13.70
2018-09-29T03:30:35.018Z,13.80
2018-09-29T03:33:03.539Z,13.80
2018-09-29T03:35:32.103Z,13.80
2018-09-29T03:38:00.626Z,13.80
2018-09-29T03:40:29.135Z,13.80
2018-09-29T03:42:57.685Z,13.70
2018-09-29T03:45:26.253Z,13.80
2018-09-29T03:47:54.863Z,13.80
2018-09-29T03:50:23.479Z,13.70
2018-09-29T03:52:52.635Z,13.70
2018-09-29T03:55:21.864Z,13.70
2018-09-29T03:57:50.488Z,13.70
2018-09-29T04:00:19.041Z,13.70
2018-09-29T04:02:47.846Z,13.70
2018-09-29T04:05:16.324Z,13.80
2018-09-29T04:07:44.802Z,13.70
2018-09-29T04:10:13.528Z,13.70
2018-09-29T04:12:41.980Z,13.60
2018-09-29T04:15:11.166Z,13.70
2018-09-29T04:17:39.674Z,13.60
2018-09-29T04:20:08.394Z,13.50
2018-09-29T04:22:36.864Z,13.50
2018-09-29T04:25:06.404Z,13.40
2018-09-29T04:27:34.923Z,13.40
2018-09-29T04:30:15.238Z,13.40
2018-09-29T04:32:43.896Z,13.40
2018-09-29T04:35:12.533Z,13.30
2018-09-29T04:37:42.111Z,13.30
2018-09-29T04:40:10.637Z,13.20
2018-09-29T04:42:40.170Z,13.10
2018-09-29T04:45:08.668Z,13.10
2018-09-29T04:47:37.294Z,13.10
2018-09-29T04:50:05.944Z,13.10
2018-09-29T04:52:34.465Z,13.10
2018-09-29T04:55:03.030Z,13.00
2018-09-29T04:57:31.599Z,13.00
2018-09-29T05:00:00.158Z,13.00
2018-09-29T05:02:30.164Z,13.00
2018-09-29T05:04:58.905Z,13.00
2018-09-29T05:07:27.412Z,13.00
2018-09-29T05:09:55.901Z,13.00
2018-09-29T05:12:24.376Z,13.00
2018-09-29T05:14:53.730Z,12.90
2018-09-29T05:17:22.219Z,12.80
2018-09-29T05:19:50.762Z,12.80
2018-09-29T05:22:19.339Z,12.80
2018-09-29T05:24:47.819Z,12.80
2018-09-29T05:27:16.274Z,12.70
2018-09-29T05:29:44.805Z,12.80
2018-09-29T05:32:13.379Z,12.70
2018-09-29T05:34:41.915Z,12.70
2018-09-29T05:37:10.496Z,12.70
2018-09-29T05:39:38.956Z,12.70
2018-09-29T05:42:07.516Z,12.70
2018-09-29T05:44:36.051Z,12.60
2018-09-29T05:47:06.880Z,12.60
2018-09-29T05:49:36.503Z,12.60
2018-09-29T05:52:05.212Z,12.50
2018-09-29T05:54:33.960Z,12.50
2018-09-29T05:57:02.625Z,12.50
2018-09-29T05:59:31.176Z,12.60
2018-09-29T06:01:59.704Z,12.60
2018-09-29T06:04:28.807Z,12.60
2018-09-29T06:06:57.424Z,12.60
2018-09-29T06:09:25.938Z,12.60
2018-09-29T06:11:54.984Z,12.60
2018-09-29T06:14:23.538Z,12.40
2018-09-29T06:16:53.187Z,12.40
2018-09-29T06:19:21.861Z,12.40
2018-09-29T06:21:50.354Z,12.40
2018-09-29T06:24:18.982Z,12.40
2018-09-29T06:26:47.720Z,12.40
2018-09-29T06:29:17.291Z,12.50
2018-09-29T06:31:45.895Z,12.50
2018-09-29T06:34:15.972Z,12.50
2018-09-29T06:36:46.240Z,12.50
2018-09-29T06:39:14.902Z,12.50
2018-09-29T06:41:43.730Z,12.60
2018-09-29T06:44:12.210Z,12.60
2018-09-29T06:46:57.161Z,12.60
2018-09-29T06:49:25.963Z,12.70
2018-09-29T06:51:55.723Z,12.80
2018-09-29T06:54:25.366Z,12.90
2018-09-29T06:56:53.936Z,13.00
2018-09-29T06:59:22.460Z,13.10
2018-09-29T07:01:51.215Z,13.20
2018-09-29T07:04:19.725Z,13.20
2018-09-29T07:06:48.296Z,13.30
2018-09-29T07:09:17.708Z,13.30
2018-09-29T07:11:46.193Z,13.40
2018-09-29T07:14:14.765Z,13.50
2018-09-29T07:16:43.281Z,13.50
2018-09-29T07:19:12.188Z,13.40
2018-09-29T07:21:40.670Z,13.50
2018-09-29T07:24:09.955Z,13.50
2018-09-29T07:27:01.134Z,13.50
2018-09-29T07:29:29.689Z,13.70
2018-09-29T07:31:59.041Z,13.90
2018-09-29T07:34:27.604Z,14.10
2018-09-29T07:36:56.224Z,14.20
2018-09-29T07:39:26.267Z,14.30
2018-09-29T07:41:55.105Z,14.40
2018-09-29T07:44:24.153Z,14.50
2018-09-29T07:46:58.119Z,14.60
2018-09-29T07:49:26.701Z,14.80
2018-09-29T07:51:55.185Z,14.90
2018-09-29T07:54:24.199Z,15.00
2018-09-29T07:56:59.905Z,15.10
2018-09-29T07:59:28.479Z,15.20
2018-09-29T08:01:57.171Z,15.30
2018-09-29T08:04:25.692Z,15.40
2018-09-29T08:06:55.265Z,15.50
2018-09-29T08:09:23.936Z,15.60
2018-09-29T08:11:52.577Z,15.70
2018-09-29T08:14:21.112Z,15.70
2018-09-29T08:16:49.678Z,15.70
2018-09-29T08:19:18.363Z,15.70
2018-09-29T08:21:46.926Z,15.80
2018-09-29T08:24:15.490Z,15.90
2018-09-29T08:26:44.016Z,15.90
2018-09-29T08:29:12.564Z,16.00
2018-09-29T08:31:41.269Z,16.00
2018-09-29T08:34:10.329Z,16.10
2018-09-29T08:36:38.907Z,16.10
2018-09-29T08:39:08.711Z,16.10
2018-09-29T08:41:37.364Z,16.10
2018-09-29T08:44:06.116Z,16.30
2018-09-29T08:46:34.889Z,16.30
2018-09-29T08:49:03.348Z,16.40
2018-09-29T08:51:32.812Z,16.40
2018-09-29T08:54:01.360Z,16.50
2018-09-29T08:56:32.637Z,16.60
2018-09-29T08:59:01.204Z,16.50
2018-09-29T09:01:29.809Z,16.60
2018-09-29T09:03:58.481Z,16.70
2018-09-29T09:06:26.967Z,16.80
2018-09-29T09:08:55.477Z,16.80
2018-09-29T09:11:24.034Z,16.80
2018-09-29T09:13:52.544Z,16.80
2018-09-29T09:16:21.068Z,16.90
2018-09-29T09:18:50.327Z,17.00
2018-09-29T09:21:18.806Z,17.20
2018-09-29T09:23:47.287Z,17.30
2018-09-29T09:26:16.541Z,17.30
2018-09-29T09:28:45.044Z,17.40
2018-09-29T09:31:13.553Z,17.20
2018-09-29T09:33:42.161Z,17.20
2018-09-29T09:36:10.820Z,17.30
2018-09-29T09:38:39.328Z,17.50
2018-09-29T09:41:08.600Z,17.60
2018-09-29T09:43:39.008Z,17.70
2018-09-29T09:46:07.659Z,17.60
2018-09-29T09:48:36.287Z,17.40
2018-09-29T09:51:05.040Z,17.40
2018-09-29T09:53:36.872Z,17.40
2018-09-29T09:56:05.611Z,17.40
2018-09-29T09:58:34.339Z,17.40
2018-09-29T10:01:09.409Z,17.40
2018-09-29T10:03:38.139Z,17.60
2018-09-29T10:06:06.884Z,17.70
2018-09-29T10:08:35.710Z,17.80
2018-09-29T10:11:20.281Z,17.90
2018-09-29T10:13:49.538Z,17.80
2018-09-29T10:16:18.150Z,17.80
2018-09-29T10:18:46.769Z,17.60
2018-09-29T10:21:15.430Z,17.50
2018-09-29T10:23:44.035Z,17.70
2018-09-29T10:26:12.803Z,17.90
2018-09-29T10:28:41.308Z,18.20
2018-09-29T10:31:27.022Z,18.10
2018-09-29T10:33:55.979Z,18.10
2018-09-29T10:36:24.635Z,18.10
2018-09-29T10:38:54.281Z,18.10
2018-09-29T10:41:22.908Z,18.20
2018-09-29T10:43:51.648Z,18.20
2018-09-29T10:46:21.818Z,18.30
2018-09-29T10:48:51.264Z,18.50
2018-09-29T10:51:19.798Z,18.60
2018-09-29T10:53:48.372Z,18.60
2018-09-29T10:56:17.388Z,18.60
2018-09-29T10:58:46.531Z,18.60
2018-09-29T11:01:16.143Z,18.60
2018-09-29T11:03:46.502Z,18.70
2018-09-29T11:06:15.060Z,18.80
2018-09-29T11:08:43.625Z,18.90
2018-09-29T11:11:12.252Z,18.90
2018-09-29T11:13:40.789Z,18.90
2018-09-29T11:16:10.521Z,18.90
2018-09-29T11:18:39.981Z,18.90
2018-09-29T11:21:08.536Z,18.90
2018-09-29T11:23:37.085Z,18.90
2018-09-29T11:26:05.619Z,18.90
2018-09-29T11:28:34.129Z,18.90
2018-09-29T11:31:03.573Z,18.90
2018-09-29T11:33:32.140Z,19.00
2018-09-29T11:36:00.641Z,19.10
2018-09-29T11:38:29.190Z,19.20
2018-09-29T11:40:57.714Z,19.10
2018-09-29T11:43:28.273Z,19.20
2018-09-29T11:45:56.900Z,19.40
2018-09-29T11:48:25.618Z,19.30
2018-09-29T11:50:54.171Z,19.30
2018-09-29T11:53:22.737Z,19.40
2018-09-29T11:55:51.722Z,19.50
2018-09-29T11:58:20.332Z,19.40
2018-09-29T12:00:48.832Z,19.40
2018-09-29T12:03:17.372Z,19.40
2018-09-29T12:05:49.133Z,19.50
2018-09-29T12:08:19.180Z,19.70
2018-09-29T12:10:47.800Z,19.60
2018-09-29T12:13:16.378Z,19.60
2018-09-29T12:15:44.931Z,19.50
2018-09-29T12:18:15.299Z,19.40
2018-09-29T12:20:44.033Z,19.50
2018-09-29T12:23:12.737Z,19.60
2018-09-29T12:25:42.397Z,19.80
2018-09-29T12:28:11.758Z,19.70
2018-09-29T12:30:41.227Z,19.50
2018-09-29T12:33:09.838Z,19.50
2018-09-29T12:35:38.580Z,19.60
2018-09-29T12:38:07.117Z,19.50
2018-09-29T12:40:35.799Z,19.60
2018-09-29T12:43:04.501Z,19.70
2018-09-29T12:45:33.073Z,19.80
2018-09-29T12:48:01.568Z,19.80
2018-09-29T12:50:30.220Z,19.80
2018-09-29T12:52:58.785Z,19.80
2018-09-29T12:55:27.324Z,19.90
2018-09-29T12:57:56.149Z,20.10
2018-09-29T13:00:24.782Z,20.10
2018-09-29T13:02:53.320Z,20.00
2018-09-29T13:05:22.119Z,20.00
2018-09-29T13:07:50.637Z,20.00
2018-09-29T13:10:19.122Z,20.10
2018-09-29T13:12:47.724Z,20.10
2018-09-29T13:15:17.196Z,20.20
2018-09-29T13:17:45.808Z,20.20
2018-09-29T13:20:15.811Z,20.10
2018-09-29T13:22:44.549Z,20.20
2018-09-29T13:25:14.837Z,20.20
2018-09-29T13:27:43.449Z,20.20
2018-09-29T13:30:12.056Z,20.30
2018-09-29T13:32:40.561Z,20.30
2018-09-29T13:35:09.849Z,20.40
2018-09-29T13:37:39.055Z,20.40
2018-09-29T13:40:07.978Z,20.30
2018-09-29T13:42:37.524Z,20.30
2018-09-29T13:45:06.049Z,20.30
2018-09-29T13:47:35.993Z,20.30
2018-09-29T13:50:06.909Z,20.20
2018-09-29T13:52:35.853Z,20.20
2018-09-29T13:55:05.420Z,20.20
2018-09-29T13:57:34.182Z,20.30
2018-09-29T14:00:02.706Z,20.20
2018-09-29T14:02:31.351Z,20.30
2018-09-29T14:04:59.920Z,20.40
2018-09-29T14:07:28.436Z,20.40
2018-09-29T14:09:58.534Z,20.40
2018-09-29T14:12:27.265Z,20.40
2018-09-29T14:14:55.997Z,20.40
2018-09-29T14:17:24.707Z,20.30
2018-09-29T14:19:55.486Z,20.30
2018-09-29T14:22:24.060Z,20.40
2018-09-29T14:24:52.668Z,20.50
2018-09-29T14:27:21.321Z,20.60
2018-09-29T14:29:49.880Z,20.50
2018-09-29T14:32:18.708Z,20.50
2018-09-29T14:34:47.236Z,20.60
2018-09-29T14:37:17.369Z,20.60
2018-09-29T14:39:45.918Z,20.60
2018-09-29T14:42:14.573Z,20.50
2018-09-29T14:44:44.170Z,20.60
2018-09-29T14:47:12.805Z,20.60
2018-09-29T14:49:42.301Z,20.60
2018-09-29T14:52:10.845Z,20.50
2018-09-29T14:54:39.513Z,20.50
2018-09-29T14:57:08.069Z,20.50
2018-09-29T14:59:37.515Z,20.40
2018-09-29T15:02:05.983Z,20.50
2018-09-29T15:04:34.556Z,20.50
2018-09-29T15:07:03.137Z,20.60
2018-09-29T15:09:31.692Z,20.70
2018-09-29T15:12:00.384Z,20.70
2018-09-29T15:14:29.905Z,20.70
2018-09-29T15:17:04.791Z,20.80
2018-09-29T15:19:35.312Z,20.90
2018-09-29T15:22:04.984Z,20.80
2018-09-29T15:24:33.767Z,20.90
2018-09-29T15:27:02.414Z,20.90
2018-09-29T15:29:30.963Z,20.80
2018-09-29T15:31:59.495Z,20.80
2018-09-29T15:34:28.824Z,20.60
2018-09-29T15:36:57.487Z,20.50
2018-09-29T15:39:25.998Z,20.40
2018-09-29T15:41:54.597Z,20.40
2018-09-29T15:44:23.247Z,20.40
2018-09-29T15:46:56.666Z,20.40
2018-09-29T15:49:25.202Z,20.30
2018-09-29T15:51:54.223Z,20.20
2018-09-29T15:54:23.390Z,20.20
2018-09-29T15:56:51.967Z,20.30
2018-09-29T15:59:23.854Z,20.30
2018-09-29T16:01:53.464Z,20.40
2018-09-29T16:04:45.218Z,20.40
2018-09-29T16:07:18.106Z,20.40
2018-09-29T16:09:47.572Z,20.50
2018-09-29T16:12:16.172Z,20.40
2018-09-29T16:14:45.461Z,20.30
2018-09-29T16:17:15.226Z,20.30
2018-09-29T16:19:43.857Z,20.40
2018-09-29T16:22:14.568Z,20.40
2018-09-29T16:24:53.275Z,20.40
2018-09-29T16:27:24.829Z,20.30
2018-09-29T16:35:57.379Z,20.20
2018-09-29T16:38:32.111Z,20.30
2018-09-29T16:41:01.683Z,20.00
2018-09-29T16:43:32.526Z,20.00
2018-09-29T16:46:01.994Z,19.90
2018-09-29T16:48:33.857Z,19.80
2018-09-29T16:51:03.063Z,19.70
2018-09-29T16:53:33.169Z,19.70
2018-09-29T16:56:02.266Z,19.60
2018-09-29T16:58:34.277Z,19.60
2018-09-29T17:01:03.111Z,19.60
2018-09-29T17:03:32.208Z,19.50
2018-09-29T17:06:01.571Z,19.50
2018-09-29T17:08:32.142Z,19.40
2018-09-29T17:11:01.005Z,19.30
2018-09-29T17:13:29.722Z,19.30
2018-09-29T17:15:59.256Z,19.20
2018-09-29T17:18:28.723Z,19.20
2018-09-29T17:20:57.950Z,19.10
2018-09-29T17:23:26.748Z,19.10
2018-09-29T17:26:03.309Z,19.10
2018-09-29T17:28:34.148Z,19.00
2018-09-29T17:31:03.345Z,19.00
2018-09-29T17:33:35.445Z,18.90
2018-09-29T17:48:05.556Z,18.70
2018-09-29T17:50:36.963Z,18.60
2018-09-29T17:53:06.190Z,18.60
2018-09-29T17:55:35.828Z,18.50
2018-09-29T17:58:09.448Z,18.50
2018-09-29T18:00:45.404Z,18.50
2018-09-29T18:03:16.249Z,18.50
2018-09-29T18:05:48.939Z,18.50
2018-09-29T18:08:19.533Z,18.40
2018-09-29T18:11:04.806Z,18.40
2018-09-29T18:16:28.578Z,18.50
2018-09-29T18:18:57.462Z,18.50
2018-09-29T18:21:26.773Z,18.50
2018-09-29T18:23:56.409Z,18.40
2018-09-29T18:26:27.143Z,18.40
2018-09-29T18:28:56.644Z,18.40
2018-09-29T18:31:25.597Z,18.30
2018-09-29T18:33:54.206Z,18.30
2018-09-29T18:36:23.681Z,18.30
2018-09-29T18:38:52.375Z,18.20
2018-09-29T18:41:20.938Z,18.20
2018-09-29T18:43:49.524Z,18.10
2018-09-29T18:46:18.095Z,18.10
2018-09-29T18:48:47.841Z,18.10
2018-09-29T18:51:17.321Z,18.10
2018-09-29T18:53:47.913Z,18.10
2018-09-29T18:56:16.638Z,18.10
2018-09-29T18:58:45.248Z,18.10
2018-09-29T19:01:13.876Z,18.10
2018-09-29T19:03:43.172Z,18.00
2018-09-29T19:06:14.250Z,18.00
2018-09-29T19:08:44.570Z,17.90
2018-09-29T19:11:33.463Z,17.90
2018-09-29T19:14:12.149Z,17.80
2018-09-29T19:16:48.247Z,17.80
2018-09-29T19:19:21.591Z,17.90
2018-09-29T19:21:55.215Z,17.80
2018-09-29T19:30:04.101Z,17.90
2018-09-29T19:32:34.397Z,17.80
2018-09-29T19:35:20.460Z,17.80
2018-09-29T19:37:58.173Z,17.80
2018-09-29T19:40:37.958Z,17.70
2018-09-29T19:43:18.659Z,17.70
2018-09-29T19:48:44.434Z,17.50
2018-09-29T19:54:27.566Z,17.10
2018-09-29T19:56:59.872Z,16.80
2018-09-29T19:59:35.186Z,16.70
2018-09-29T20:02:05.815Z,16.70
2018-09-29T20:07:40.628Z,16.60
2018-09-29T20:10:10.645Z,16.60
2018-09-29T20:12:42.437Z,16.70
2018-09-29T20:15:14.708Z,16.50
2018-09-29T20:17:46.518Z,16.50
2018-09-29T20:20:18.332Z,16.50
2018-09-29T20:22:50.559Z,16.50
2018-09-29T20:25:28.943Z,16.50
2018-09-29T20:28:17.505Z,16.50
2018-09-29T20:30:49.037Z,16.50
2018-09-29T20:39:29.562Z,16.40
2018-09-29T20:42:28.995Z,16.40
2018-09-29T20:47:51.935Z,16.40
2018-09-29T20:50:40.175Z,16.30
2018-09-29T20:53:10.171Z,16.30
2018-09-29T20:55:41.432Z,16.40
2018-09-29T20:58:19.478Z,16.30
2018-09-29T21:00:49.309Z,16.30
2018-09-29T21:03:20.415Z,16.30
2018-09-29T21:05:51.650Z,16.30
2018-09-29T21:08:25.158Z,16.30
2018-09-29T21:10:56.235Z,16.20
2018-09-29T21:13:26.459Z,16.20
2018-09-29T21:16:00.314Z,16.20
2018-09-29T21:18:29.502Z,16.10
2018-09-29T21:20:58.801Z,16.10
2018-09-29T21:23:28.328Z,16.10
2018-09-29T21:25:57.423Z,16.10
2018-09-29T21:28:26.928Z,16.00
2018-09-29T21:30:59.576Z,16.00
2018-09-29T21:39:37.197Z,15.80
2018-09-29T21:45:03.282Z,15.60
2018-09-29T21:47:39.009Z,15.50
2018-09-29T21:50:12.725Z,15.40
2018-09-29T21:52:42.436Z,15.40
2018-09-29T21:55:14.163Z,15.30
2018-09-29T22:00:45.881Z,15.30
2018-09-29T22:06:12.357Z,15.30
2018-09-29T22:16:42.043Z,15.20
2018-09-29T22:19:17.766Z,15.10
2018-09-29T22:25:19.105Z,15.20
2018-09-29T22:27:55.807Z,15.10
2018-09-29T22:30:25.136Z,15.10
2018-09-29T22:32:54.098Z,14.90
2018-09-29T22:35:24.365Z,14.90
2018-09-29T22:37:53.548Z,14.80
2018-09-29T22:40:24.308Z,14.70
2018-09-29T22:42:59.044Z,14.70
2018-09-29T22:45:29.162Z,14.60
2018-09-29T22:48:17.790Z,14.50
2018-09-29T22:50:48.723Z,14.40
2018-09-29T22:53:25.925Z,14.30
2018-09-29T22:55:56.741Z,14.10
2018-09-29T22:58:27.298Z,14.00
2018-09-29T23:00:59.691Z,13.90
2018-09-29T23:03:31.395Z,13.90
2018-09-29T23:06:01.008Z,14.00
2018-09-29T23:08:32.900Z,14.20
2018-09-29T23:11:04.419Z,14.20
2018-09-29T23:13:39.863Z,14.10
2018-09-29T23:16:10.642Z,14.00
2018-09-29T23:20:25.889Z,14.00
2018-09-29T23:30:39.449Z,14.00
2018-09-29T23:33:14.117Z,14.00
2018-09-29T23:35:43.243Z,14.00
2018-09-29T23:38:17.001Z,14.10
2018-09-29T23:40:56.075Z,14.10
2018-09-29T23:43:29.816Z,14.10
2018-09-29T23:46:00.691Z,14.20
2018-09-29T23:48:30.755Z,14.30
2018-09-29T23:51:04.545Z,14.30
2018-09-29T23:53:37.632Z,14.30
2018-09-29T23:56:07.646Z,14.30
2018-09-29T23:58:40.512Z,14.30
